createdAt,value
2018-09-29T00:00:28.029Z,101450
2018-09-29T00:01:33.197Z,101447
2018-09-29T00:02:38.652Z,101447
2018-09-29T00:03:44.291Z,101459
2018-09-29T00:04:49.492Z,101462
2018-09-29T00:05:54.711Z,101462
2018-09-29T00:07:00.343Z,101465
2018-09-29T00:08:05.529Z,101459
2018-09-29T00:09:10.392Z,101462
2018-09-29T00:10:15.776Z,101465
2018-09-29T00:11:19.983Z,101453
2018-09-29T00:13:45.049Z,101465
2018-09-29T00:14:50.189Z,101471
2018-09-29T00:15:55.291Z,101459
2018-09-29T00:17:00.481Z,101465
2018-09-29T00:18:04.780Z,101459
2018-09-29T00:19:10.375Z,101465
2018-09-29T00:20:15.631Z,101468
2018-09-29T00:21:21.202Z,101459
2018-09-29T00:22:26.185Z,101459
2018-09-29T00:23:31.646Z,101462
2018-09-29T00:24:37.093Z,101465
2018-09-29T00:25:42.641Z,101465
2018-09-29T00:26:47.858Z,101465
2018-09-29T00:27:53.122Z,101474
2018-09-29T00:28:58.612Z,101465
2018-09-29T00:30:03.464Z,101465
2018-09-29T00:31:08.670Z,101462
2018-09-29T00:32:13.834Z,101465
2018-09-29T00:33:19.351Z,101474
2018-09-29T00:34:24.831Z,101465
2018-09-29T00:35:29.704Z,101456
2018-09-29T00:36:35.421Z,101462
2018-09-29T00:37:40.380Z,101471
2018-09-29T00:38:45.638Z,101468
2018-09-29T00:39:51.110Z,101465
2018-09-29T00:40:56.314Z,101465
2018-09-29T00:42:01.778Z,101471
2018-09-29T00:43:06.795Z,101459
2018-09-29T00:44:12.325Z,101468
2018-09-29T00:45:17.515Z,101465
2018-09-29T00:46:23.366Z,101476
2018-09-29T00:47:28.834Z,101465
2018-09-29T00:48:33.956Z,101465
2018-09-29T00:49:39.506Z,101471
2018-09-29T00:50:44.398Z,101468
2018-09-29T00:51:50.416Z,101471
2018-09-29T00:52:55.904Z,101474
2018-09-29T00:54:00.805Z,101465
2018-09-29T00:55:05.969Z,101471
2018-09-29T00:56:11.149Z,101468
2018-09-29T00:57:16.585Z,101476
2018-09-29T00:58:22.190Z,101471
2018-09-29T00:59:27.675Z,101476
2018-09-29T01:00:33.089Z,101468
2018-09-29T01:01:38.245Z,101465
2018-09-29T01:02:43.390Z,101462
2018-09-29T01:03:49.067Z,101468
2018-09-29T01:04:54.544Z,101462
2018-09-29T01:05:59.812Z,101471
2018-09-29T01:07:04.927Z,101459
2018-09-29T01:08:09.797Z,101465
2018-09-29T01:09:15.018Z,101485
2018-09-29T01:10:20.415Z,101471
2018-09-29T01:11:25.679Z,101474
2018-09-29T01:12:31.513Z,101476
2018-09-29T01:13:36.734Z,101476
2018-09-29T01:14:42.323Z,101471
2018-09-29T01:15:48.169Z,101474
2018-09-29T01:16:53.318Z,101474
2018-09-29T01:17:58.501Z,101465
2018-09-29T01:19:04.367Z,101468
2018-09-29T01:20:09.555Z,101471
2018-09-29T01:21:14.428Z,101474
2018-09-29T01:22:19.781Z,101468
2018-09-29T01:23:25.248Z,101468
2018-09-29T01:24:30.985Z,101468
2018-09-29T01:25:36.183Z,101462
2018-09-29T01:26:41.698Z,101462
2018-09-29T01:27:47.248Z,101468
2018-09-29T01:28:52.775Z,101453
2018-09-29T01:29:58.236Z,101459
2018-09-29T01:31:03.518Z,101459
2018-09-29T01:32:08.802Z,101456
2018-09-29T01:33:14.077Z,101456
2018-09-29T01:34:19.854Z,101456
2018-09-29T01:35:25.033Z,101459
2018-09-29T01:36:30.734Z,101462
2018-09-29T01:37:35.884Z,101450
2018-09-29T01:38:41.322Z,101450
2018-09-29T01:39:46.880Z,101456
2018-09-29T01:40:52.164Z,101456
2018-09-29T01:41:57.362Z,101453
2018-09-29T01:43:03.326Z,101447
2018-09-29T01:44:08.889Z,101447
2018-09-29T01:45:14.518Z,101447
2018-09-29T01:46:20.279Z,101450
2018-09-29T01:47:25.782Z,101447
2018-09-29T01:48:31.105Z,101450
2018-09-29T01:49:36.607Z,101453
2018-09-29T01:50:42.061Z,101459
2018-09-29T01:51:47.715Z,101456
2018-09-29T01:52:52.279Z,101456
2018-09-29T01:53:57.227Z,101456
2018-09-29T01:55:02.342Z,101453
2018-09-29T01:56:07.865Z,101450
2018-09-29T01:57:13.320Z,101450
2018-09-29T01:58:19.048Z,101442
2018-09-29T01:59:24.272Z,101447
2018-09-29T02:00:29.928Z,101450
2018-09-29T02:01:34.229Z,101447
2018-09-29T02:02:39.121Z,101447
2018-09-29T02:03:44.964Z,101453
2018-09-29T02:04:50.396Z,101462
2018-09-29T02:05:55.634Z,101444
2018-09-29T02:07:01.564Z,101462
2018-09-29T02:08:07.292Z,101459
2018-09-29T02:09:12.870Z,101465
2018-09-29T02:10:18.624Z,101462
2018-09-29T02:11:23.768Z,101462
2018-09-29T02:12:28.921Z,101462
2018-09-29T02:13:34.091Z,101465
2018-09-29T02:14:39.560Z,101473
2018-09-29T02:15:45.234Z,101468
2018-09-29T02:16:50.417Z,101479
2018-09-29T02:17:55.592Z,101479
2018-09-29T02:19:00.794Z,101485
2018-09-29T02:20:05.955Z,101474
2018-09-29T02:21:10.820Z,101479
2018-09-29T02:22:16.215Z,101482
2018-09-29T02:23:21.069Z,101476
2018-09-29T02:24:26.958Z,101488
2018-09-29T02:25:32.385Z,101479
2018-09-29T02:26:37.551Z,101476
2018-09-29T02:27:42.943Z,101473
2018-09-29T02:28:47.888Z,101476
2018-09-29T02:29:53.268Z,101482
2018-09-29T02:30:58.671Z,101468
2018-09-29T02:32:04.105Z,101471
2018-09-29T02:33:09.176Z,101468
2018-09-29T02:34:14.029Z,101473
2018-09-29T02:35:18.903Z,101471
2018-09-29T02:36:24.070Z,101468
2018-09-29T02:37:44.619Z,101465
2018-09-29T02:38:50.063Z,101465
2018-09-29T02:39:55.752Z,101468
2018-09-29T02:41:00.650Z,101471
2018-09-29T02:42:05.570Z,101468
2018-09-29T02:43:11.307Z,101468
2018-09-29T02:44:16.527Z,101471
2018-09-29T02:45:21.729Z,101465
2018-09-29T02:46:27.726Z,101462
2018-09-29T02:47:32.676Z,101462
2018-09-29T02:48:38.451Z,101462
2018-09-29T02:49:43.881Z,101459
2018-09-29T02:50:49.064Z,101459
2018-09-29T02:51:54.602Z,101453
2018-09-29T02:52:59.748Z,101456
2018-09-29T02:54:05.272Z,101468
2018-09-29T02:55:10.858Z,101468
2018-09-29T02:56:16.291Z,101465
2018-09-29T02:57:21.835Z,101462
2018-09-29T02:58:27.102Z,101459
2018-09-29T02:59:32.554Z,101456
2018-09-29T03:00:37.840Z,101459
2018-09-29T03:01:43.336Z,101453
2018-09-29T03:02:48.768Z,101465
2018-09-29T03:03:54.173Z,101459
2018-09-29T03:04:59.600Z,101462
2018-09-29T03:06:05.104Z,101462
2018-09-29T03:07:10.733Z,101473
2018-09-29T03:08:16.545Z,101456
2018-09-29T03:09:21.788Z,101468
2018-09-29T03:10:26.976Z,101468
2018-09-29T03:11:32.404Z,101465
2018-09-29T03:12:37.534Z,101465
2018-09-29T03:13:43.068Z,101473
2018-09-29T03:14:48.499Z,101462
2018-09-29T03:15:54.180Z,101462
2018-09-29T03:16:59.325Z,101465
2018-09-29T03:18:04.491Z,101456
2018-09-29T03:19:09.559Z,101468
2018-09-29T03:20:15.300Z,101465
2018-09-29T03:21:20.164Z,101459
2018-09-29T03:22:25.681Z,101468
2018-09-29T03:23:31.159Z,101459
2018-09-29T03:24:36.271Z,101468
2018-09-29T03:25:41.492Z,101465
2018-09-29T03:26:47.021Z,101462
2018-09-29T03:27:52.423Z,101462
2018-09-29T03:28:56.719Z,101462
2018-09-29T03:30:01.940Z,101459
2018-09-29T03:31:07.189Z,101467
2018-09-29T03:32:12.618Z,101467
2018-09-29T03:33:17.239Z,101462
2018-09-29T03:34:22.802Z,101456
2018-09-29T03:35:27.957Z,101470
2018-09-29T03:36:34.029Z,101467
2018-09-29T03:37:38.962Z,101467
2018-09-29T03:38:44.393Z,101473
2018-09-29T03:39:50.049Z,101467
2018-09-29T03:40:55.521Z,101465
2018-09-29T03:42:00.512Z,101470
2018-09-29T03:43:06.429Z,101467
2018-09-29T03:44:11.337Z,101459
2018-09-29T03:45:16.556Z,101464
2018-09-29T03:46:22.387Z,101459
2018-09-29T03:47:27.548Z,101470
2018-09-29T03:48:32.718Z,101459
2018-09-29T03:49:37.326Z,101456
2018-09-29T03:50:42.519Z,101462
2018-09-29T03:51:48.498Z,101459
2018-09-29T03:52:53.169Z,101459
2018-09-29T03:53:58.604Z,101467
2018-09-29T03:55:03.701Z,101462
2018-09-29T03:56:08.023Z,101459
2018-09-29T03:57:13.187Z,101456
2018-09-29T03:58:19.065Z,101447
2018-09-29T03:59:24.058Z,101450
2018-09-29T04:00:29.862Z,101444
2018-09-29T04:01:35.021Z,101447
2018-09-29T04:02:40.019Z,101450
2018-09-29T04:03:45.729Z,101450
2018-09-29T04:04:50.920Z,101447
2018-09-29T04:05:56.385Z,101444
2018-09-29T04:07:01.930Z,101450
2018-09-29T04:08:07.089Z,101441
2018-09-29T04:09:12.567Z,101444
2018-09-29T04:10:17.957Z,101441
2018-09-29T04:11:22.834Z,101450
2018-09-29T04:12:28.635Z,101447
2018-09-29T04:13:33.517Z,101444
2018-09-29T04:14:38.750Z,101450
2018-09-29T04:15:44.301Z,101447
2018-09-29T04:16:49.731Z,101450
2018-09-29T04:17:54.039Z,101447
2018-09-29T04:18:59.362Z,101444
2018-09-29T04:20:04.612Z,101455
2018-09-29T04:21:09.772Z,101447
2018-09-29T04:22:15.456Z,101455
2018-09-29T04:23:20.905Z,101455
2018-09-29T04:24:26.844Z,101461
2018-09-29T04:25:32.312Z,101447
2018-09-29T04:26:37.168Z,101453
2018-09-29T04:27:42.704Z,101455
2018-09-29T04:28:47.861Z,101450
2018-09-29T04:29:52.736Z,101458
2018-09-29T04:30:58.528Z,101467
2018-09-29T04:32:02.867Z,101464
2018-09-29T04:33:07.766Z,101461
2018-09-29T04:34:13.564Z,101464
2018-09-29T04:35:18.442Z,101467
2018-09-29T04:36:23.619Z,101473
2018-09-29T04:37:43.672Z,101461
2018-09-29T04:38:48.885Z,101461
2018-09-29T04:39:54.670Z,101470
2018-09-29T04:41:00.281Z,101467
2018-09-29T04:42:05.474Z,101461
2018-09-29T04:43:11.253Z,101461
2018-09-29T04:44:17.037Z,101467
2018-09-29T04:45:22.532Z,101464
2018-09-29T04:46:28.366Z,101461
2018-09-29T04:47:33.574Z,101464
2018-09-29T04:48:39.192Z,101473
2018-09-29T04:49:44.062Z,101470
2018-09-29T04:50:49.570Z,101470
2018-09-29T04:51:55.150Z,101464
2018-09-29T04:53:00.329Z,101478
2018-09-29T04:54:04.950Z,101476
2018-09-29T04:55:10.399Z,101476
2018-09-29T04:56:15.563Z,101481
2018-09-29T04:57:20.490Z,101476
2018-09-29T04:58:25.751Z,101478
2018-09-29T04:59:30.963Z,101481
2018-09-29T05:00:36.644Z,101484
2018-09-29T05:01:41.229Z,101481
2018-09-29T05:02:46.662Z,101487
2018-09-29T05:03:52.464Z,101493
2018-09-29T05:04:57.352Z,101487
2018-09-29T05:06:02.513Z,101484
2018-09-29T05:07:08.134Z,101490
2018-09-29T05:08:13.006Z,101487
2018-09-29T05:09:17.619Z,101493
2018-09-29T05:10:23.303Z,101481
2018-09-29T05:11:28.905Z,101487
2018-09-29T05:12:34.549Z,101487
2018-09-29T05:13:40.031Z,101487
2018-09-29T05:14:45.206Z,101478
2018-09-29T05:15:50.651Z,101475
2018-09-29T05:16:55.868Z,101478
2018-09-29T05:18:01.019Z,101470
2018-09-29T05:19:06.403Z,101475
2018-09-29T05:20:11.956Z,101478
2018-09-29T05:21:17.386Z,101473
2018-09-29T05:22:22.696Z,101475
2018-09-29T05:23:27.923Z,101470
2018-09-29T05:24:33.323Z,101467
2018-09-29T05:25:38.827Z,101473
2018-09-29T05:26:44.312Z,101473
2018-09-29T05:27:49.863Z,101484
2018-09-29T05:28:54.738Z,101487
2018-09-29T05:29:59.910Z,101481
2018-09-29T05:31:05.025Z,101490
2018-09-29T05:32:10.232Z,101481
2018-09-29T05:33:15.448Z,101487
2018-09-29T05:34:21.162Z,101484
2018-09-29T05:35:25.489Z,101481
2018-09-29T05:36:31.552Z,101481
2018-09-29T05:37:36.725Z,101490
2018-09-29T05:38:42.199Z,101495
2018-09-29T05:39:48.069Z,101493
2018-09-29T05:40:52.992Z,101495
2018-09-29T05:41:58.141Z,101490
2018-09-29T05:43:02.798Z,101498
2018-09-29T05:44:07.110Z,101490
2018-09-29T05:45:12.534Z,101490
2018-09-29T05:46:18.186Z,101484
2018-09-29T05:47:23.423Z,101495
2018-09-29T05:48:29.303Z,101495
2018-09-29T05:49:34.550Z,101495
2018-09-29T05:50:39.814Z,101491
2018-09-29T05:51:45.792Z,101491
2018-09-29T05:52:50.386Z,101479
2018-09-29T05:53:55.688Z,101485
2018-09-29T05:55:01.843Z,101494
2018-09-29T05:56:07.263Z,101494
2018-09-29T05:57:12.512Z,101494
2018-09-29T05:58:18.349Z,101502
2018-09-29T05:59:23.532Z,101499
2018-09-29T06:00:28.855Z,101499
2018-09-29T06:01:34.223Z,101499
2018-09-29T06:02:39.386Z,101502
2018-09-29T06:03:45.134Z,101505
2018-09-29T06:04:50.701Z,101520
2018-09-29T06:05:56.573Z,101505
2018-09-29T06:07:02.402Z,101502
2018-09-29T06:08:07.376Z,101505
2018-09-29T06:09:12.884Z,101505
2018-09-29T06:10:18.563Z,101506
2018-09-29T06:11:23.435Z,101506
2018-09-29T06:12:28.471Z,101500
2018-09-29T06:13:33.936Z,101503
2018-09-29T06:14:39.103Z,101506
2018-09-29T06:15:44.615Z,101517
2018-09-29T06:16:49.768Z,101509
2018-09-29T06:17:54.452Z,101509
2018-09-29T06:19:00.151Z,101503
2018-09-29T06:20:05.588Z,101509
2018-09-29T06:21:09.885Z,101500
2018-09-29T06:22:15.854Z,101512
2018-09-29T06:23:21.299Z,101506
2018-09-29T06:24:26.863Z,101500
2018-09-29T06:25:31.769Z,101500
2018-09-29T06:26:36.363Z,101506
2018-09-29T06:27:41.482Z,101495
2018-09-29T06:28:46.957Z,101495
2018-09-29T06:29:52.104Z,101500
2018-09-29T06:30:57.500Z,101500
2018-09-29T06:32:02.767Z,101500
2018-09-29T06:33:08.248Z,101500
2018-09-29T06:34:13.749Z,101503
2018-09-29T06:35:19.444Z,101503
2018-09-29T06:37:44.806Z,101495
2018-09-29T06:38:50.237Z,101501
2018-09-29T06:39:56.295Z,101498
2018-09-29T06:41:01.010Z,101506
2018-09-29T06:42:05.637Z,101504
2018-09-29T06:43:11.385Z,101495
2018-09-29T06:44:16.812Z,101504
2018-09-29T06:45:21.952Z,101495
2018-09-29T06:46:27.749Z,101501
2018-09-29T06:47:32.715Z,101495
2018-09-29T06:48:38.562Z,101504
2018-09-29T06:49:43.996Z,101507
2018-09-29T06:50:48.950Z,101501
2018-09-29T06:51:54.436Z,101504
2018-09-29T06:52:59.592Z,101513
2018-09-29T06:54:04.742Z,101498
2018-09-29T06:55:09.985Z,101495
2018-09-29T06:56:15.510Z,101504
2018-09-29T06:57:20.658Z,101510
2018-09-29T06:58:26.340Z,101507
2018-09-29T06:59:31.811Z,101513
2018-09-29T07:00:37.563Z,101498
2018-09-29T07:01:42.717Z,101507
2018-09-29T07:02:48.130Z,101501
2018-09-29T07:03:53.694Z,101501
2018-09-29T07:04:58.651Z,101490
2018-09-29T07:06:04.102Z,101495
2018-09-29T07:07:09.637Z,101501
2018-09-29T07:08:15.115Z,101498
2018-09-29T07:09:20.554Z,101513
2018-09-29T07:10:26.316Z,101510
2018-09-29T07:11:31.497Z,101504
2018-09-29T07:12:36.898Z,101516
2018-09-29T07:13:42.048Z,101507
2018-09-29T07:14:47.393Z,101507
2018-09-29T07:15:52.280Z,101504
2018-09-29T07:16:57.482Z,101510
2018-09-29T07:18:02.748Z,101501
2018-09-29T07:19:08.850Z,101501
2018-09-29T07:20:14.086Z,101485
2018-09-29T07:21:19.249Z,101504
2018-09-29T07:22:25.276Z,101495
2018-09-29T07:23:30.148Z,101498
2018-09-29T07:24:35.652Z,101495
2018-09-29T07:25:41.131Z,101491
2018-09-29T07:26:46.285Z,101498
2018-09-29T07:27:51.978Z,101495
2018-09-29T07:28:57.206Z,101498
2018-09-29T07:30:02.128Z,101491
2018-09-29T07:31:06.866Z,101491
2018-09-29T07:32:12.338Z,101496
2018-09-29T07:33:17.198Z,101496
2018-09-29T07:34:22.763Z,101498
2018-09-29T07:35:28.298Z,101504
2018-09-29T07:36:34.094Z,101504
2018-09-29T07:37:38.669Z,101507
2018-09-29T07:38:43.829Z,101501
2018-09-29T07:39:49.674Z,101501
2018-09-29T07:40:54.883Z,101501
2018-09-29T07:41:59.833Z,101507
2018-09-29T07:43:05.728Z,101501
2018-09-29T07:44:11.184Z,101513
2018-09-29T07:45:16.491Z,101504
2018-09-29T07:46:21.759Z,101505
2018-09-29T07:47:27.248Z,101511
2018-09-29T07:48:32.668Z,101511
2018-09-29T07:49:37.848Z,101511
2018-09-29T07:50:43.284Z,101514
2018-09-29T07:51:48.605Z,101517
2018-09-29T07:52:53.580Z,101514
2018-09-29T07:53:58.473Z,101511
2018-09-29T07:55:04.035Z,101508
2018-09-29T07:56:09.017Z,101505
2018-09-29T07:57:13.940Z,101514
2018-09-29T07:58:19.238Z,101509
2018-09-29T07:59:24.709Z,101509
2018-09-29T08:00:30.690Z,101514
2018-09-29T08:01:36.144Z,101514
2018-09-29T08:02:41.885Z,101509
2018-09-29T08:03:47.179Z,101514
2018-09-29T08:04:52.121Z,101509
2018-09-29T08:05:57.344Z,101511
2018-09-29T08:07:02.837Z,101520
2018-09-29T08:08:08.279Z,101517
2018-09-29T08:09:13.718Z,101514
2018-09-29T08:10:19.685Z,101511
2018-09-29T08:11:24.573Z,101509
2018-09-29T08:12:30.419Z,101509
2018-09-29T08:13:35.635Z,101526
2018-09-29T08:14:40.977Z,101512
2018-09-29T08:15:46.790Z,101524
2018-09-29T08:16:52.241Z,101506
2018-09-29T08:17:57.124Z,101518
2018-09-29T08:19:02.333Z,101517
2018-09-29T08:20:07.275Z,101512
2018-09-29T08:21:12.508Z,101512
2018-09-29T08:22:17.900Z,101509
2018-09-29T08:23:22.831Z,101506
2018-09-29T08:24:28.314Z,101500
2018-09-29T08:25:33.399Z,101500
2018-09-29T08:26:38.358Z,101509
2018-09-29T08:27:44.222Z,101501
2018-09-29T08:28:49.634Z,101506
2018-09-29T08:29:55.130Z,101506
2018-09-29T08:31:00.965Z,101512
2018-09-29T08:32:06.129Z,101500
2018-09-29T08:33:11.571Z,101500
2018-09-29T08:34:17.883Z,101518
2018-09-29T08:35:23.076Z,101503
2018-09-29T08:36:29.107Z,101500
2018-09-29T08:37:34.354Z,101497
2018-09-29T08:38:39.582Z,101521
2018-09-29T08:39:44.983Z,101506
2018-09-29T08:40:50.448Z,101500
2018-09-29T08:41:55.620Z,101503
2018-09-29T08:43:01.045Z,101506
2018-09-29T08:44:05.736Z,101500
2018-09-29T08:45:10.628Z,101503
2018-09-29T08:46:16.065Z,101497
2018-09-29T08:47:21.301Z,101506
2018-09-29T08:48:41.612Z,101512
2018-09-29T08:49:46.822Z,101497
2018-09-29T08:50:52.000Z,101494
2018-09-29T08:51:57.679Z,101494
2018-09-29T08:53:03.183Z,101497
2018-09-29T08:54:08.733Z,101495
2018-09-29T08:55:14.287Z,101495
2018-09-29T08:56:19.826Z,101493
2018-09-29T08:57:24.977Z,101493
2018-09-29T08:58:30.789Z,101495
2018-09-29T08:59:36.014Z,101487
2018-09-29T09:00:41.843Z,101487
2018-09-29T09:01:47.011Z,101490
2018-09-29T09:02:52.442Z,101490
2018-09-29T09:03:58.012Z,101484
2018-09-29T09:05:03.964Z,101485
2018-09-29T09:06:08.839Z,101490
2018-09-29T09:07:14.246Z,101493
2018-09-29T09:08:19.730Z,101490
2018-09-29T09:10:45.378Z,101487
2018-09-29T09:11:50.277Z,101490
2018-09-29T09:12:55.421Z,101484
2018-09-29T09:14:00.633Z,101484
2018-09-29T09:15:05.249Z,101493
2018-09-29T09:16:11.105Z,101487
2018-09-29T09:17:16.262Z,101485
2018-09-29T09:18:21.692Z,101488
2018-09-29T09:19:27.755Z,101495
2018-09-29T09:20:32.967Z,101487
2018-09-29T09:21:38.699Z,101490
2018-09-29T09:22:44.024Z,101493
2018-09-29T09:23:49.313Z,101497
2018-09-29T09:24:55.089Z,101487
2018-09-29T09:26:00.280Z,101490
2018-09-29T09:27:05.968Z,101489
2018-09-29T09:28:11.960Z,101487
2018-09-29T09:29:17.111Z,101484
2018-09-29T09:30:22.539Z,101486
2018-09-29T09:31:28.168Z,101484
2018-09-29T09:32:33.036Z,101484
2018-09-29T09:33:38.744Z,101487
2018-09-29T09:34:43.953Z,101487
2018-09-29T09:35:48.610Z,101493
2018-09-29T09:36:54.159Z,101490
2018-09-29T09:37:59.034Z,101484
2018-09-29T09:39:04.469Z,101487
2018-09-29T09:40:10.221Z,101479
2018-09-29T09:41:15.701Z,101473
2018-09-29T09:42:20.850Z,101487
2018-09-29T09:43:27.057Z,101473
2018-09-29T09:44:32.529Z,101487
2018-09-29T09:45:38.231Z,101475
2018-09-29T09:46:43.719Z,101484
2018-09-29T09:47:48.864Z,101472
2018-09-29T09:48:54.725Z,101475
2018-09-29T09:49:59.874Z,101481
2018-09-29T09:51:04.794Z,101478
2018-09-29T09:52:10.070Z,101470
2018-09-29T09:53:14.674Z,101473
2018-09-29T09:54:19.529Z,101467
2018-09-29T09:55:24.854Z,101458
2018-09-29T09:56:30.376Z,101449
2018-09-29T09:57:35.844Z,101464
2018-09-29T09:58:40.989Z,101461
2018-09-29T09:59:46.142Z,101461
2018-09-29T10:00:51.573Z,101452
2018-09-29T10:01:57.073Z,101449
2018-09-29T10:03:02.237Z,101446
2018-09-29T10:04:07.902Z,101446
2018-09-29T10:05:12.581Z,101452
2018-09-29T10:06:17.610Z,101452
2018-09-29T10:07:23.476Z,101446
2018-09-29T10:08:28.352Z,101449
2018-09-29T10:09:33.773Z,101443
2018-09-29T10:10:38.349Z,101449
2018-09-29T10:11:43.554Z,101446
2018-09-29T10:12:48.495Z,101446
2018-09-29T10:13:53.958Z,101432
2018-09-29T10:14:59.455Z,101432
2018-09-29T10:16:04.803Z,101440
2018-09-29T10:17:09.995Z,101432
2018-09-29T10:18:15.438Z,101432
2018-09-29T10:19:20.795Z,101438
2018-09-29T10:20:25.733Z,101435
2018-09-29T10:21:31.575Z,101429
2018-09-29T10:22:37.395Z,101426
2018-09-29T10:23:42.005Z,101423
2018-09-29T10:24:47.792Z,101432
2018-09-29T10:25:52.944Z,101429
2018-09-29T10:26:58.090Z,101417
2018-09-29T10:28:03.939Z,101414
2018-09-29T10:29:09.406Z,101414
2018-09-29T10:30:14.839Z,101417
2018-09-29T10:31:20.658Z,101420
2018-09-29T10:32:25.520Z,101417
2018-09-29T10:33:30.633Z,101409
2018-09-29T10:34:36.120Z,101409
2018-09-29T10:35:41.590Z,101414
2018-09-29T10:36:47.772Z,101411
2018-09-29T10:37:52.154Z,101397
2018-09-29T10:38:57.712Z,101400
2018-09-29T10:40:02.654Z,101391
2018-09-29T10:41:07.557Z,101406
2018-09-29T10:42:12.807Z,101400
2018-09-29T10:43:18.827Z,101403
2018-09-29T10:44:23.438Z,101397
2018-09-29T10:45:29.485Z,101397
2018-09-29T10:46:34.688Z,101391
2018-09-29T10:47:39.847Z,101397
2018-09-29T10:48:45.383Z,101394
2018-09-29T10:49:50.535Z,101391
2018-09-29T10:50:55.989Z,101391
2018-09-29T10:52:01.493Z,101394
2018-09-29T10:53:06.028Z,101391
2018-09-29T10:54:11.013Z,101391
2018-09-29T10:55:16.422Z,101388
2018-09-29T10:56:21.018Z,101377
2018-09-29T10:57:26.778Z,101377
2018-09-29T10:58:31.925Z,101371
2018-09-29T10:59:37.360Z,101380
2018-09-29T11:00:42.963Z,101374
2018-09-29T11:01:48.464Z,101376
2018-09-29T11:02:53.330Z,101371
2018-09-29T11:03:59.007Z,101368
2018-09-29T11:05:04.119Z,101368
2018-09-29T11:06:10.283Z,101365
2018-09-29T11:07:16.136Z,101362
2018-09-29T11:08:21.063Z,101362
2018-09-29T11:09:41.259Z,101356
2018-09-29T11:10:46.473Z,101351
2018-09-29T11:11:51.647Z,101351
2018-09-29T11:12:56.887Z,101351
2018-09-29T11:14:02.243Z,101351
2018-09-29T11:15:06.841Z,101351
2018-09-29T11:16:12.627Z,101345
2018-09-29T11:17:17.787Z,101348
2018-09-29T11:18:23.294Z,101342
2018-09-29T11:19:43.853Z,101345
2018-09-29T11:20:49.441Z,101342
2018-09-29T11:21:55.655Z,101345
2018-09-29T11:23:01.086Z,101348
2018-09-29T11:24:06.564Z,101348
2018-09-29T11:25:12.286Z,101339
2018-09-29T11:26:17.432Z,101333
2018-09-29T11:27:22.622Z,101333
2018-09-29T11:28:28.551Z,101327
2018-09-29T11:29:34.013Z,101333
2018-09-29T11:30:39.992Z,101333
2018-09-29T11:31:45.177Z,101336
2018-09-29T11:32:50.617Z,101327
2018-09-29T11:33:56.582Z,101333
2018-09-29T11:35:02.117Z,101330
2018-09-29T11:36:06.752Z,101324
2018-09-29T11:37:12.307Z,101327
2018-09-29T11:38:17.499Z,101318
2018-09-29T11:39:22.541Z,101313
2018-09-29T11:40:28.656Z,101321
2018-09-29T11:41:33.747Z,101318
2018-09-29T11:42:39.586Z,101315
2018-09-29T11:43:45.083Z,101321
2018-09-29T11:44:50.668Z,101318
2018-09-29T11:45:56.915Z,101310
2018-09-29T11:47:01.821Z,101302
2018-09-29T11:48:06.972Z,101302
2018-09-29T11:49:12.536Z,101310
2018-09-29T11:50:18.025Z,101305
2018-09-29T11:51:23.460Z,101299
2018-09-29T11:52:29.243Z,101293
2018-09-29T11:53:34.155Z,101302
2018-09-29T11:54:40.020Z,101307
2018-09-29T11:55:45.551Z,101296
2018-09-29T11:56:51.021Z,101296
2018-09-29T11:57:56.473Z,101293
2018-09-29T11:59:02.014Z,101299
2018-09-29T12:00:07.439Z,101290
2018-09-29T12:01:13.081Z,101287
2018-09-29T12:02:18.422Z,101285
2018-09-29T12:03:24.326Z,101282
2018-09-29T12:04:44.606Z,101288
2018-09-29T12:05:49.884Z,101273
2018-09-29T12:06:55.316Z,101291
2018-09-29T12:08:00.769Z,101285
2018-09-29T12:09:06.245Z,101279
2018-09-29T12:10:12.030Z,101267
2018-09-29T12:11:17.515Z,101273
2018-09-29T12:12:23.304Z,101273
2018-09-29T12:13:28.743Z,101271
2018-09-29T12:14:33.942Z,101274
2018-09-29T12:15:39.207Z,101268
2018-09-29T12:16:44.129Z,101259
2018-09-29T12:17:49.630Z,101262
2018-09-29T12:18:55.199Z,101265
2018-09-29T12:20:00.651Z,101268
2018-09-29T12:21:05.083Z,101271
2018-09-29T12:22:11.093Z,101253
2018-09-29T12:23:16.050Z,101256
2018-09-29T12:24:21.303Z,101256
2018-09-29T12:25:41.369Z,101248
2018-09-29T12:26:46.906Z,101248
2018-09-29T12:27:52.308Z,101248
2018-09-29T12:28:56.910Z,101248
2018-09-29T12:30:02.164Z,101245
2018-09-29T12:31:06.728Z,101239
2018-09-29T12:32:12.160Z,101253
2018-09-29T12:33:17.362Z,101248
2018-09-29T12:34:22.481Z,101239
2018-09-29T12:35:27.340Z,101242
2018-09-29T12:36:33.036Z,101242
2018-09-29T12:37:38.326Z,101233
2018-09-29T12:38:43.711Z,101227
2018-09-29T12:39:49.254Z,101230
2018-09-29T12:40:54.422Z,101227
2018-09-29T12:41:59.863Z,101230
2018-09-29T12:43:04.735Z,101224
2018-09-29T12:44:09.970Z,101230
2018-09-29T12:45:14.838Z,101218
2018-09-29T12:46:20.368Z,101221
2018-09-29T12:47:25.540Z,101215
2018-09-29T12:48:31.371Z,101216
2018-09-29T12:49:36.817Z,101213
2018-09-29T12:50:42.267Z,101224
2018-09-29T12:51:47.401Z,101218
2018-09-29T12:52:53.157Z,101213
2018-09-29T12:53:58.019Z,101210
2018-09-29T12:55:03.108Z,101212
2018-09-29T12:56:08.566Z,101207
2018-09-29T12:57:13.495Z,101207
2018-09-29T12:58:18.973Z,101210
2018-09-29T12:59:24.125Z,101204
2018-09-29T13:00:28.492Z,101213
2018-09-29T13:01:33.955Z,101201
2018-09-29T13:02:39.145Z,101204
2018-09-29T13:03:44.595Z,101204
2018-09-29T13:04:49.757Z,101195
2018-09-29T13:05:54.916Z,101195
2018-09-29T13:07:00.381Z,101195
2018-09-29T13:08:05.532Z,101183
2018-09-29T13:09:10.794Z,101186
2018-09-29T13:10:16.291Z,101180
2018-09-29T13:11:21.726Z,101180
2018-09-29T13:12:27.182Z,101186
2018-09-29T13:13:31.862Z,101174
2018-09-29T13:14:36.789Z,101177
2018-09-29T13:15:41.872Z,101177
2018-09-29T13:16:47.416Z,101175
2018-09-29T13:17:52.462Z,101175
2018-09-29T13:18:58.121Z,101172
2018-09-29T13:20:03.548Z,101178
2018-09-29T13:21:08.414Z,101175
2018-09-29T13:22:13.679Z,101172
2018-09-29T13:23:19.133Z,101169
2018-09-29T13:24:23.735Z,101155
2018-09-29T13:25:44.230Z,101164
2018-09-29T13:26:49.393Z,101166
2018-09-29T13:27:54.703Z,101161
2018-09-29T13:28:59.871Z,101158
2018-09-29T13:30:05.332Z,101153
2018-09-29T13:31:10.468Z,101144
2018-09-29T13:32:15.324Z,101147
2018-09-29T13:33:20.498Z,101150
2018-09-29T13:34:25.950Z,101150
2018-09-29T13:35:31.411Z,101144
2018-09-29T13:36:36.849Z,101136
2018-09-29T13:37:42.280Z,101145
2018-09-29T13:38:47.725Z,101142
2018-09-29T13:39:53.476Z,101136
2018-09-29T13:40:58.307Z,101136